Time;durP1;ratioP1;P1;durP2;ratioP2;P2;SDS_P1;SDS_P2;PMS_P1;PMS_P2;Temp;Humidity;BMP_temperature;BMP_pressure;BME280_temperature;BME280_humidity;BME280_pressure;Samples;Min_cycle;Max_cycle;Signal;HPM_P1;HPM_P2
2023/09/05 00:04:28;;;;;;;2.60;2.40;;;20.20;33.90;;;;;;10460818;28;20239;-72
2023/09/05 00:09:32;;;;;;;2.83;2.63;;;20.20;34.10;;;;;;10460254;28;20532;-72
2023/09/05 00:14:36;;;;;;;2.60;2.40;;;20.20;33.90;;;;;;10460334;28;20317;-71
2023/09/05 00:26:03;;;;;;;2.50;2.30;;;20.10;34.30;;;;;;10446890;28;20225;-72
2023/09/05 00:31:06;;;;;;;2.77;2.57;;;20.00;34.00;;;;;;10469748;28;20744;-72
2023/09/05 00:36:12;;;;;;;2.47;2.27;;;20.00;34.00;;;;;;10460901;28;21025;-72
2023/09/05 00:41:16;;;;;;;2.80;2.60;;;20.00;33.90;;;;;;10456770;28;20236;-71
2023/09/05 00:46:19;;;;;;;2.23;2.13;;;20.00;34.30;;;;;;10456661;28;20235;-71
2023/09/05 00:51:23;;;;;;;2.63;2.43;;;19.90;34.00;;;;;;10461820;28;20228;-71
2023/09/05 00:56:28;;;;;;;2.40;2.20;;;19.90;34.10;;;;;;10457360;28;20584;-71
2023/09/05 01:01:31;;;;;;;3.07;2.20;;;19.90;34.50;;;;;;10450552;28;20236;-72
2023/09/05 01:06:41;;;;;;;3.03;2.50;;;19.80;34.30;;;;;;10462591;28;20283;-72
2023/09/05 01:11:46;;;;;;;2.53;2.33;;;19.80;35.10;;;;;;10458317;28;20231;-71
2023/09/05 01:16:49;;;;;;;2.33;2.13;;;19.80;34.80;;;;;;10466788;28;20217;-72
2023/09/05 01:22:02;;;;;;;2.50;2.30;;;19.70;34.60;;;;;;10455475;28;20220;-72
2023/09/05 01:27:08;;;;;;;2.90;2.27;;;19.70;35.50;;;;;;10460526;28;20232;-72
2023/09/05 01:32:11;;;;;;;2.60;2.40;;;19.60;35.10;;;;;;10458772;28;20291;-71
2023/09/05 01:37:15;;;;;;;2.40;2.30;;;19.60;34.70;;;;;;10458546;28;20312;-71
2023/09/05 01:42:20;;;;;;;2.40;2.20;;;19.60;34.80;;;;;;10458298;28;20706;-71
2023/09/05 01:47:23;;;;;;;2.33;2.13;;;19.50;35.00;;;;;;10453664;28;20311;-71
2023/09/05 01:52:26;;;;;;;2.90;2.20;;;19.50;34.90;;;;;;10461537;28;20557;-72
2023/09/05 01:57:32;;;;;;;2.30;2.10;;;19.50;35.00;;;;;;10458598;28;20239;-71
2023/09/05 02:02:35;;;;;;;2.40;2.27;;;19.40;35.60;;;;;;10454280;28;20232;-71
2023/09/05 02:07:38;;;;;;;2.13;2.00;;;19.40;35.30;;;;;;10459024;28;20711;-71
2023/09/05 02:12:46;;;;;;;2.17;1.90;;;19.40;35.10;;;;;;10458387;28;20731;-71
2023/09/05 02:17:49;;;;;;;2.37;2.17;;;19.40;35.70;;;;;;10454359;28;20310;-71
2023/09/05 02:22:52;;;;;;;2.63;2.43;;;19.30;35.30;;;;;;10454550;28;20219;-72
2023/09/05 02:27:57;;;;;;;2.80;2.40;;;19.30;35.20;;;;;;10450136;28;20295;-71
2023/09/05 02:33:00;;;;;;;2.43;2.23;;;19.30;35.80;;;;;;10456218;28;20225;-71
2023/09/05 02:38:03;;;;;;;3.13;2.43;;;19.30;35.30;;;;;;10446115;28;20225;-72
2023/09/05 02:43:08;;;;;;;2.33;2.13;;;19.20;35.40;;;;;;10455375;28;20733;-72
2023/09/05 02:48:11;;;;;;;2.83;2.30;;;19.20;35.90;;;;;;10455879;28;20231;-72
2023/09/05 02:53:14;;;;;;;2.37;2.17;;;19.10;35.70;;;;;;10462810;28;20258;-71
2023/09/05 02:58:19;;;;;;;3.50;2.50;;;19.00;35.60;;;;;;10467900;28;20311;-71
2023/09/05 03:03:22;;;;;;;2.60;2.40;;;19.00;35.60;;;;;;10467400;28;20234;-72
2023/09/05 03:08:26;;;;;;;2.43;2.23;;;19.00;35.60;;;;;;10465212;28;20232;-71
2023/09/05 03:13:31;;;;;;;2.60;2.37;;;18.90;35.50;;;;;;10462484;28;20716;-72
2023/09/05 03:18:34;;;;;;;2.00;1.90;;;18.90;35.50;;;;;;10460970;28;20243;-71
2023/09/05 03:23:37;;;;;;;3.43;2.70;;;18.90;35.50;;;;;;10464777;28;20644;-71
2023/09/05 03:28:43;;;;;;;2.40;2.20;;;18.90;35.50;;;;;;10461708;28;20250;-72
2023/09/05 03:33:46;;;;;;;3.30;2.40;;;18.80;36.00;;;;;;10464750;28;20301;-72
2023/09/05 03:38:49;;;;;;;2.77;2.33;;;18.80;35.50;;;;;;10465060;28;20743;-72
2023/09/05 03:43:54;;;;;;;2.40;2.20;;;18.80;35.50;;;;;;10462268;28;20223;-72
2023/09/05 03:48:57;;;;;;;2.10;2.00;;;18.70;35.70;;;;;;10462432;28;20228;-72
2023/09/05 03:54:01;;;;;;;2.80;2.10;;;18.70;35.40;;;;;;10462880;28;20228;-72
2023/09/05 03:59:06;;;;;;;2.70;2.50;;;18.60;35.60;;;;;;10464398;28;20244;-72
2023/09/05 04:04:09;;;;;;;2.40;2.20;;;18.60;36.30;;;;;;10468429;28;20233;-72
2023/09/05 04:09:13;;;;;;;2.87;2.57;;;18.50;36.00;;;;;;10465717;28;20308;-72
2023/09/05 04:14:17;;;;;;;2.47;2.33;;;18.50;36.10;;;;;;10462100;28;20308;-72
2023/09/05 04:19:20;;;;;;;2.60;2.40;;;18.40;36.30;;;;;;10466622;28;20233;-72
2023/09/05 04:24:24;;;;;;;2.90;2.70;;;18.40;36.10;;;;;;10464896;28;20605;-72
2023/09/05 04:29:30;;;;;;;2.93;2.73;;;18.30;36.00;;;;;;10456374;28;20240;-72
2023/09/05 04:34:34;;;;;;;2.80;2.47;;;18.30;36.30;;;;;;10458266;28;20251;-72
2023/09/05 04:39:38;;;;;;;3.17;2.90;;;18.20;36.30;;;;;;10456211;28;20233;-72
2023/09/05 04:44:42;;;;;;;2.97;2.70;;;18.10;36.00;;;;;;10456744;28;20319;-72
2023/09/05 04:49:46;;;;;;;3.03;2.73;;;18.10;36.50;;;;;;10454123;28;20248;-72
2023/09/05 04:54:49;;;;;;;3.43;3.13;;;18.00;36.30;;;;;;10456934;28;20232;-72
2023/09/05 04:59:57;;;;;;;2.83;2.57;;;17.90;36.60;;;;;;10460316;28;20234;-71
2023/09/05 05:05:00;;;;;;;5.47;3.30;;;17.90;37.00;;;;;;10461762;28;20314;-72
2023/09/05 05:10:04;;;;;;;3.87;2.87;;;17.90;36.60;;;;;;10456537;28;20233;-71
2023/09/05 05:15:10;;;;;;;4.20;3.27;;;17.80;36.50;;;;;;10459705;28;20256;-72
2023/09/05 05:20:13;;;;;;;5.73;3.23;;;17.80;37.10;;;;;;10462915;28;20762;-72
2023/09/05 05:25:16;;;;;;;4.30;2.93;;;17.70;36.80;;;;;;10460282;28;20229;-71
2023/09/05 05:30:21;;;;;;;3.40;3.10;;;17.70;36.90;;;;;;10456358;28;20685;-71
2023/09/05 05:35:25;;;;;;;3.10;2.80;;;17.70;37.50;;;;;;10456961;28;20239;-71
2023/09/05 05:40:28;;;;;;;3.50;2.70;;;17.60;37.20;;;;;;10451714;28;20690;-71
2023/09/05 05:45:32;;;;;;;3.40;3.10;;;17.60;37.40;;;;;;10452506;28;20248;-70
2023/09/05 05:50:36;;;;;;;3.07;2.77;;;17.60;38.10;;;;;;10448599;28;21020;-71
2023/09/05 05:55:39;;;;;;;2.90;2.70;;;17.60;37.90;;;;;;10452768;28;20229;-71
2023/09/05 06:00:45;;;;;;;3.07;2.77;;;17.70;38.20;;;;;;10455440;28;20751;-71
2023/09/05 06:05:51;;;;;;;3.37;2.93;;;17.70;38.80;;;;;;10454662;28;20221;-70
2023/09/05 06:10:54;;;;;;;3.20;2.93;;;17.80;39.00;;;;;;10455535;28;20728;-70
2023/09/05 06:15:59;;;;;;;3.53;3.10;;;17.80;38.80;;;;;;10458855;28;20286;-70
2023/09/05 06:21:02;;;;;;;3.60;3.30;;;17.90;39.70;;;;;;10455691;28;20271;-70
2023/09/05 06:26:05;;;;;;;3.50;3.20;;;18.00;39.40;;;;;;10454201;28;20248;-71
2023/09/05 06:31:10;;;;;;;3.30;3.10;;;18.10;39.50;;;;;;10465654;28;20232;-71
2023/09/05 06:36:13;;;;;;;3.57;3.27;;;18.20;40.20;;;;;;10461264;28;20228;-70
2023/09/05 06:41:16;;;;;;;2.73;2.53;;;18.30;39.70;;;;;;10465047;28;20240;-71
2023/09/05 06:46:21;;;;;;;3.07;2.77;;;18.40;39.90;;;;;;10461890;28;20224;-71
2023/09/05 06:51:24;;;;;;;3.07;2.83;;;18.50;40.30;;;;;;10458460;28;20240;-72
2023/09/05 06:56:28;;;;;;;3.17;2.87;;;18.70;39.60;;;;;;10465622;28;20675;-73
2023/09/05 07:01:33;;;;;;;3.43;3.13;;;18.80;39.70;;;;;;10463898;28;20355;-71
2023/09/05 07:06:39;;;;;;;3.00;2.73;;;18.90;39.80;;;;;;10462634;28;20217;-72
2023/09/05 07:11:42;;;;;;;2.83;2.63;;;19.10;39.70;;;;;;10462104;28;20635;-73
2023/09/05 07:16:47;;;;;;;4.67;2.93;;;19.30;39.60;;;;;;10461945;28;20224;-73
2023/09/05 07:21:50;;;;;;;2.87;2.67;;;19.50;39.80;;;;;;10458566;28;22509;-71
2023/09/05 07:26:53;;;;;;;2.80;2.60;;;19.60;39.30;;;;;;10463658;28;20566;-72
2023/09/05 07:31:57;;;;;;;3.80;3.07;;;19.80;39.30;;;;;;10469317;28;20721;-70
2023/09/05 07:37:01;;;;;;;2.80;2.60;;;20.00;39.50;;;;;;10464845;28;20311;-70
2023/09/05 07:42:05;;;;;;;2.90;2.50;;;20.20;39.30;;;;;;10459633;28;20271;-70
2023/09/05 07:47:09;;;;;;;2.83;2.53;;;20.50;39.40;;;;;;10460367;28;20227;-70
2023/09/05 07:52:13;;;;;;;2.70;2.50;;;20.70;38.90;;;;;;10463744;28;20765;-70
2023/09/05 07:57:17;;;;;;;2.70;2.50;;;21.00;38.80;;;;;;10462602;28;20228;-70
2023/09/05 08:02:21;;;;;;;3.27;2.33;;;21.20;38.30;;;;;;10459274;28;20684;-71
2023/09/05 08:07:25;;;;;;;2.50;2.30;;;21.50;37.80;;;;;;10460339;28;20314;-70
2023/09/05 08:12:28;;;;;;;3.27;2.70;;;21.70;38.00;;;;;;10461665;28;20256;-71
2023/09/05 08:17:33;;;;;;;2.57;2.30;;;22.00;37.70;;;;;;10455339;28;20242;-70
2023/09/05 08:22:36;;;;;;;3.10;2.50;;;22.20;37.30;;;;;;10455887;28;20247;-71
2023/09/05 08:27:41;;;;;;;2.80;2.50;;;22.40;38.30;;;;;;10449851;28;20228;-71
2023/09/05 08:32:46;;;;;;;2.93;2.73;;;22.60;37.00;;;;;;10457904;28;20273;-72
2023/09/05 08:37:50;;;;;;;2.80;2.60;;;22.90;36.50;;;;;;10449807;28;20343;-72
2023/09/05 08:42:53;;;;;;;2.87;2.67;;;23.10;36.60;;;;;;10455506;28;20590;-72
2023/09/05 08:47:58;;;;;;;2.83;2.63;;;23.30;36.20;;;;;;10452436;28;20229;-71
2023/09/05 08:53:10;;;;;;;4.00;2.90;;;23.50;34.90;;;;;;10415598;28;20240;-73
2023/09/05 08:58:16;;;;;;;3.03;2.73;;;23.70;34.90;;;;;;10410095;28;20229;-72
2023/09/05 09:03:21;;;;;;;2.60;2.40;;;23.90;34.80;;;;;;10414705;28;20221;-72
2023/09/05 09:08:24;;;;;;;2.80;2.60;;;24.10;34.70;;;;;;10418896;28;20240;-71
2023/09/05 09:13:28;;;;;;;3.03;2.77;;;24.30;35.40;;;;;;10416459;28;20320;-72
2023/09/05 09:18:33;;;;;;;3.93;2.70;;;24.50;34.50;;;;;;10414818;28;20253;-72
2023/09/05 09:23:38;;;;;;;3.50;2.70;;;24.60;32.40;;;;;;10413296;28;20232;-72
2023/09/05 09:28:41;;;;;;;4.23;2.93;;;24.80;33.40;;;;;;10415909;28;20296;-72
2023/09/05 09:33:56;;;;;;;2.73;2.53;;;24.90;33.30;;;;;;10412505;28;20256;-71
2023/09/05 09:39:07;;;;;;;2.93;2.57;;;25.00;32.30;;;;;;10412522;28;20240;-71
2023/09/05 09:44:11;;;;;;;3.20;2.97;;;25.20;30.90;;;;;;10409526;28;20253;-72
2023/09/05 09:49:16;;;;;;;3.33;3.00;;;25.40;32.10;;;;;;10413665;28;20239;-71
2023/09/05 09:54:28;;;;;;;3.60;3.17;;;25.60;31.80;;;;;;10413123;28;20320;-71
2023/09/05 09:59:35;;;;;;;2.70;2.50;;;25.70;30.00;;;;;;10416954;28;20252;-71
2023/09/05 10:04:41;;;;;;;3.37;3.00;;;25.90;30.50;;;;;;10410769;28;20239;-71
2023/09/05 10:09:45;;;;;;;2.80;2.60;;;26.00;29.20;;;;;;10414720;28;20601;-71
2023/09/05 10:14:49;;;;;;;2.90;2.70;;;26.10;30.10;;;;;;10407393;28;20230;-71
2023/09/05 10:19:55;;;;;;;3.50;3.20;;;26.20;29.40;;;;;;10406253;28;20234;-71
2023/09/05 10:24:58;;;;;;;3.30;3.00;;;26.30;28.80;;;;;;10413121;28;20324;-71
2023/09/05 10:30:02;;;;;;;3.13;2.83;;;26.40;29.40;;;;;;10411842;28;20858;-71
2023/09/05 10:35:07;;;;;;;3.50;3.20;;;26.50;28.90;;;;;;10410520;28;20308;-71
2023/09/05 10:40:12;;;;;;;3.27;2.97;;;26.50;28.40;;;;;;10410728;28;20236;-71
2023/09/05 10:45:29;;;;;;;3.37;3.07;;;26.60;28.60;;;;;;10407520;28;20256;-71
2023/09/05 10:51:07;;;;;;;3.00;2.80;;;26.70;27.80;;;;;;10410655;28;20240;-71
2023/09/05 10:56:40;;;;;;;3.33;2.93;;;26.90;28.10;;;;;;10409051;28;20274;-71
2023/09/05 11:01:52;;;;;;;3.20;2.90;;;27.00;27.70;;;;;;10410588;28;20236;-71
2023/09/05 11:07:05;;;;;;;3.40;3.10;;;27.20;27.20;;;;;;10410867;28;20274;-71
2023/09/05 11:12:10;;;;;;;3.07;2.87;;;27.30;26.70;;;;;;10417723;28;20244;-71
2023/09/05 11:17:15;;;;;;;3.70;2.80;;;27.40;27.60;;;;;;10423201;28;20233;-71
2023/09/05 11:22:21;;;;;;;4.13;3.10;;;27.50;27.20;;;;;;10420276;28;20234;-71
2023/09/05 11:27:26;;;;;;;3.00;2.80;;;27.60;26.40;;;;;;10424153;28;20328;-71
2023/09/05 11:32:31;;;;;;;3.17;2.97;;;27.60;26.80;;;;;;10422909;28;20672;-71
2023/09/05 11:37:36;;;;;;;3.23;2.97;;;27.70;26.60;;;;;;10423067;28;20229;-71
2023/09/05 11:42:39;;;;;;;3.43;2.87;;;27.70;25.70;;;;;;10426530;28;20375;-71
2023/09/05 11:47:43;;;;;;;2.87;2.60;;;27.70;26.00;;;;;;10421186;28;20869;-71
2023/09/05 11:52:51;;;;;;;3.90;3.03;;;27.70;26.00;;;;;;10421730;28;20237;-71
2023/09/05 11:57:56;;;;;;;2.90;2.70;;;27.60;25.20;;;;;;10418513;28;20225;-71
2023/09/05 12:03:01;;;;;;;2.57;2.37;;;27.60;25.40;;;;;;10419088;28;20218;-71
2023/09/05 12:08:07;;;;;;;2.63;2.43;;;27.60;25.40;;;;;;10422649;28;20229;-71
2023/09/05 12:13:37;;;;;;;2.80;2.60;;;27.70;24.40;;;;;;10416886;28;20240;-70
2023/09/05 12:18:41;;;;;;;3.00;2.80;;;27.80;23.90;;;;;;10418941;28;20327;-71
2023/09/05 12:23:50;;;;;;;2.90;2.70;;;27.80;25.00;;;;;;10418827;28;20232;-71
2023/09/05 12:28:58;;;;;;;3.20;2.90;;;27.80;24.20;;;;;;10420812;28;20239;-71
2023/09/05 12:34:01;;;;;;;3.20;2.90;;;27.90;24.40;;;;;;10413005;28;20726;-71
2023/09/05 12:39:06;;;;;;;2.80;2.60;;;27.90;24.70;;;;;;10418542;28;20312;-70
2023/09/05 12:44:10;;;;;;;2.60;2.40;;;27.90;24.20;;;;;;10411196;28;20303;-71
2023/09/05 12:49:13;;;;;;;2.60;2.40;;;27.90;24.60;;;;;;10414981;28;20673;-71
2023/09/05 12:54:18;;;;;;;2.97;2.63;;;27.90;24.60;;;;;;10421907;28;20225;-71
2023/09/05 12:59:24;;;;;;;2.87;2.67;;;28.00;24.40;;;;;;10421381;28;20257;-71
2023/09/05 13:04:29;;;;;;;2.77;2.57;;;28.00;24.50;;;;;;10415977;28;20225;-71
2023/09/05 13:09:34;;;;;;;3.20;2.90;;;28.00;24.20;;;;;;10416545;28;20237;-71
2023/09/05 13:14:37;;;;;;;3.27;2.70;;;28.00;23.60;;;;;;10413199;28;20316;-71
2023/09/05 13:19:41;;;;;;;2.90;2.70;;;27.90;23.90;;;;;;10413413;28;20221;-71
2023/09/05 13:24:46;;;;;;;2.77;2.47;;;27.90;24.00;;;;;;10415418;28;21139;-71
2023/09/05 13:29:50;;;;;;;2.87;2.60;;;27.90;23.90;;;;;;10413258;28;20815;-71
2023/09/05 13:34:53;;;;;;;3.00;2.80;;;27.90;24.50;;;;;;10454870;28;20668;-71
2023/09/05 13:39:58;;;;;;;3.30;3.00;;;28.00;24.50;;;;;;10458370;28;20720;-71
2023/09/05 13:45:02;;;;;;;3.10;2.90;;;28.00;23.90;;;;;;10413038;28;20217;-71
2023/09/05 13:50:06;;;;;;;3.07;2.87;;;28.10;24.10;;;;;;10420381;28;20341;-71
2023/09/05 13:55:11;;;;;;;3.27;3.07;;;28.10;23.70;;;;;;10413149;28;20940;-71
2023/09/05 14:00:16;;;;;;;3.00;2.80;;;28.10;23.40;;;;;;10413068;28;20626;-71
2023/09/05 14:05:20;;;;;;;3.67;3.10;;;28.10;23.60;;;;;;10413873;28;20645;-71
2023/09/05 14:10:24;;;;;;;4.77;3.30;;;28.10;23.20;;;;;;10414660;28;20232;-71
2023/09/05 14:15:28;;;;;;;3.97;2.93;;;28.20;23.20;;;;;;10415060;28;20461;-71
2023/09/05 14:20:31;;;;;;;3.50;3.20;;;28.30;23.80;;;;;;10408222;28;20602;-71
2023/09/05 14:25:36;;;;;;;3.60;3.30;;;28.30;23.50;;;;;;10411562;28;20684;-71
2023/09/05 14:30:39;;;;;;;4.00;3.70;;;28.30;23.30;;;;;;10416262;28;20283;-72
2023/09/05 14:35:43;;;;;;;3.70;3.40;;;28.30;23.30;;;;;;10412420;28;20721;-71
2023/09/05 14:40:47;;;;;;;3.70;3.40;;;28.30;23.20;;;;;;10416816;28;20232;-71
2023/09/05 14:45:51;;;;;;;4.23;3.50;;;28.30;22.70;;;;;;10410017;28;20323;-71
2023/09/05 14:50:54;;;;;;;3.30;3.00;;;28.30;22.80;;;;;;10416976;28;20845;-73
2023/09/05 14:55:59;;;;;;;3.50;3.20;;;28.40;22.80;;;;;;10420402;28;20880;-73
2023/09/05 15:01:02;;;;;;;3.13;2.93;;;28.40;22.60;;;;;;10422454;28;20312;-73
2023/09/05 15:06:06;;;;;;;4.17;3.27;;;28.40;22.70;;;;;;10424150;28;20236;-73
2023/09/05 15:11:11;;;;;;;3.50;3.30;;;28.50;22.60;;;;;;10419562;28;20602;-73
2023/09/05 15:16:14;;;;;;;6.77;3.70;;;28.50;22.10;;;;;;10420948;28;20328;-73
2023/09/05 15:21:18;;;;;;;3.20;3.00;;;28.60;22.30;;;;;;10424996;28;20221;-72
2023/09/05 15:26:23;;;;;;;3.37;3.17;;;28.60;22.30;;;;;;10425820;28;20260;-73
2023/09/05 15:31:26;;;;;;;3.13;2.90;;;28.60;21.90;;;;;;10421656;28;20336;-73
2023/09/05 15:36:29;;;;;;;3.27;2.97;;;28.60;22.20;;;;;;10413011;28;20282;-73
2023/09/05 15:41:34;;;;;;;3.87;3.07;;;28.70;22.20;;;;;;10415585;28;20234;-73
2023/09/05 15:46:39;;;;;;;3.90;3.50;;;28.70;21.90;;;;;;10414044;28;20282;-73
2023/09/05 15:51:43;;;;;;;4.70;3.47;;;28.70;22.20;;;;;;10419446;28;20240;-73
2023/09/05 15:56:49;;;;;;;3.67;3.40;;;28.70;22.40;;;;;;10419520;28;20223;-73
2023/09/05 16:01:53;;;;;;;3.40;3.10;;;28.70;22.10;;;;;;10421486;28;20316;-73
2023/09/05 16:06:56;;;;;;;3.30;3.00;;;28.70;22.30;;;;;;10421940;28;20639;-73
2023/09/05 16:12:01;;;;;;;5.00;3.37;;;28.70;22.30;;;;;;10417339;28;20316;-73
2023/09/05 16:17:06;;;;;;;3.17;2.97;;;28.70;22.10;;;;;;10420878;28;20221;-73
2023/09/05 16:22:10;;;;;;;3.30;3.00;;;28.70;21.90;;;;;;10423246;28;20249;-73
2023/09/05 16:27:14;;;;;;;3.60;3.30;;;28.70;21.90;;;;;;10422010;28;20275;-74
2023/09/05 16:32:17;;;;;;;3.37;3.07;;;28.70;21.80;;;;;;10418032;28;20316;-74
2023/09/05 16:37:20;;;;;;;3.30;3.10;;;28.70;22.10;;;;;;10421859;28;20312;-74
2023/09/05 16:42:25;;;;;;;3.43;3.20;;;28.70;22.20;;;;;;10418017;28;20233;-74
2023/09/05 16:47:29;;;;;;;3.40;3.10;;;28.70;22.10;;;;;;10420971;28;20237;-74
2023/09/05 16:52:32;;;;;;;3.33;3.13;;;28.70;22.40;;;;;;10424845;28;20623;-73
2023/09/05 16:57:36;;;;;;;3.60;3.30;;;28.60;22.40;;;;;;10417321;28;20792;-73
2023/09/05 17:02:40;;;;;;;3.93;3.20;;;28.60;22.20;;;;;;10421580;28;20229;-74
2023/09/05 17:07:45;;;;;;;3.40;3.10;;;28.60;22.30;;;;;;10421882;28;20691;-73
2023/09/05 17:12:49;;;;;;;5.57;3.77;;;28.50;22.40;;;;;;10419768;28;20233;-74
2023/09/05 17:17:52;;;;;;;3.90;3.60;;;28.40;22.90;;;;;;10414190;28;20228;-74
2023/09/05 17:22:56;;;;;;;4.03;3.63;;;28.30;22.90;;;;;;10420788;28;20227;-73
2023/09/05 17:28:01;;;;;;;5.80;3.83;;;28.20;23.10;;;;;;10422255;28;20697;-74
2023/09/05 17:33:09;;;;;;;4.63;3.90;;;28.00;23.40;;;;;;10419984;28;20259;-72
2023/09/05 17:38:12;;;;;;;5.57;4.27;;;27.80;23.50;;;;;;10420138;28;20257;-73
2023/09/05 17:43:17;;;;;;;4.73;4.33;;;27.70;23.60;;;;;;10414872;28;20225;-73
2023/09/05 17:48:20;;;;;;;4.67;4.20;;;27.50;23.90;;;;;;10415586;28;20226;-73
2023/09/05 17:53:24;;;;;;;4.90;4.07;;;27.30;23.80;;;;;;10421625;28;20252;-73
2023/09/05 17:58:30;;;;;;;4.57;4.27;;;27.20;23.90;;;;;;10413306;28;20255;-73
2023/09/05 18:03:33;;;;;;;4.00;3.70;;;27.10;24.20;;;;;;10422021;28;20229;-73
2023/09/05 18:08:37;;;;;;;3.80;3.50;;;26.90;24.20;;;;;;10415532;28;20853;-73
2023/09/05 18:13:41;;;;;;;3.97;3.57;;;26.70;24.50;;;;;;10413231;28;20225;-73
2023/09/05 18:18:45;;;;;;;3.97;3.60;;;26.50;24.80;;;;;;10416641;28;20324;-73
2023/09/05 18:23:49;;;;;;;3.87;3.50;;;26.30;25.00;;;;;;10417286;28;20959;-73
2023/09/05 18:28:53;;;;;;;4.03;3.73;;;26.20;25.20;;;;;;10415827;28;20224;-73
2023/09/05 18:33:57;;;;;;;4.17;3.70;;;26.00;25.40;;;;;;10417182;28;20225;-73
2023/09/05 18:39:00;;;;;;;3.90;3.60;;;25.90;25.40;;;;;;10409343;28;20308;-73
2023/09/05 18:44:05;;;;;;;4.17;3.77;;;25.70;25.40;;;;;;10427035;28;20266;-74
2023/09/05 18:49:08;;;;;;;4.00;3.70;;;25.60;25.80;;;;;;10414417;28;20748;-74
2023/09/05 18:54:12;;;;;;;3.67;3.37;;;25.40;25.90;;;;;;10404851;28;20229;-73
2023/09/05 18:59:17;;;;;;;4.30;3.90;;;25.20;26.10;;;;;;10412563;28;20233;-74
2023/09/05 19:04:21;;;;;;;3.70;3.40;;;25.10;26.20;;;;;;10411952;28;20225;-73
2023/09/05 19:09:25;;;;;;;4.03;3.73;;;24.90;26.20;;;;;;10416573;28;20236;-73
2023/09/05 19:14:30;;;;;;;4.00;3.70;;;24.80;26.30;;;;;;10412875;28;20254;-73
2023/09/05 19:19:33;;;;;;;3.97;3.67;;;24.60;26.40;;;;;;10417328;28;20229;-73
2023/09/05 19:24:37;;;;;;;4.10;3.80;;;24.30;26.30;;;;;;10415726;28;20308;-73
2023/09/05 19:29:41;;;;;;;3.97;3.30;;;24.00;26.50;;;;;;10423892;28;20290;-74
2023/09/05 19:34:44;;;;;;;4.33;4.00;;;23.80;27.00;;;;;;10416152;28;20221;-73
2023/09/05 19:39:48;;;;;;;4.93;4.17;;;23.70;27.00;;;;;;10426158;28;20597;-72
2023/09/05 19:44:53;;;;;;;4.53;4.13;;;23.60;27.10;;;;;;10421753;28;20216;-72
2023/09/05 19:49:56;;;;;;;4.83;4.27;;;23.50;27.60;;;;;;10420061;28;20598;-72
2023/09/05 19:55:00;;;;;;;6.70;3.80;;;23.40;27.30;;;;;;10425380;28;20221;-74
2023/09/05 20:00:09;;;;;;;4.33;3.93;;;23.10;27.40;;;;;;10418689;28;20229;-73
2023/09/05 20:05:14;;;;;;;4.50;4.13;;;22.90;27.70;;;;;;10425338;28;20248;-74
2023/09/05 20:10:17;;;;;;;4.43;4.03;;;22.70;27.40;;;;;;10423832;28;20233;-73
2023/09/05 20:15:22;;;;;;;4.80;4.40;;;22.60;27.70;;;;;;10422156;28;20245;-73
2023/09/05 20:20:27;;;;;;;5.73;5.13;;;22.40;28.30;;;;;;10423363;28;20241;-73
2023/09/05 20:25:30;;;;;;;5.70;4.83;;;22.30;28.00;;;;;;10423838;28;20225;-73
2023/09/05 20:30:35;;;;;;;4.90;4.37;;;22.20;28.00;;;;;;10417844;28;20352;-73
2023/09/05 20:35:38;;;;;;;5.73;5.23;;;22.20;28.70;;;;;;10412990;28;20770;-73
2023/09/05 20:40:41;;;;;;;6.67;5.10;;;22.10;28.30;;;;;;10418742;28;20240;-73
2023/09/05 20:45:46;;;;;;;5.13;4.63;;;22.00;28.40;;;;;;10423818;28;20320;-73
2023/09/05 20:50:50;;;;;;;5.90;4.80;;;21.90;28.70;;;;;;10412118;28;20763;-73
2023/09/05 20:55:53;;;;;;;5.50;4.97;;;21.90;28.60;;;;;;10421459;28;20229;-73
2023/09/05 21:01:00;;;;;;;5.50;5.00;;;21.80;28.50;;;;;;10416683;28;20226;-73
2023/09/05 21:06:09;;;;;;;4.83;4.33;;;21.80;28.90;;;;;;10455529;28;20225;-73
2023/09/05 21:11:12;;;;;;;5.60;5.00;;;21.70;29.00;;;;;;10461367;28;20320;-73
2023/09/05 21:16:17;;;;;;;5.13;4.73;;;21.60;28.50;;;;;;10456922;28;20690;-73
2023/09/05 21:21:20;;;;;;;5.47;4.97;;;21.50;28.80;;;;;;10463826;28;20265;-73
2023/09/05 21:26:24;;;;;;;6.90;5.80;;;21.50;28.70;;;;;;10462797;28;20228;-73
2023/09/05 21:31:28;;;;;;;6.50;5.80;;;21.40;28.90;;;;;;10461441;28;20233;-73
2023/09/05 21:36:32;;;;;;;5.80;5.27;;;21.20;29.20;;;;;;10461582;28;20235;-73
2023/09/05 21:41:35;;;;;;;5.13;4.67;;;21.00;29.00;;;;;;10460708;28;20315;-73
2023/09/05 21:46:39;;;;;;;5.40;5.00;;;20.90;29.10;;;;;;10457797;28;20252;-73
2023/09/05 21:51:43;;;;;;;6.27;5.40;;;20.80;29.40;;;;;;10456122;28;20252;-73
2023/09/05 21:56:46;;;;;;;6.10;5.60;;;20.80;29.30;;;;;;10452981;28;20224;-73
2023/09/05 22:01:51;;;;;;;5.63;5.13;;;20.70;29.40;;;;;;10462591;28;20264;-73
2023/09/05 22:06:54;;;;;;;5.80;5.30;;;20.70;29.60;;;;;;10457825;28;20227;-73
2023/09/05 22:12:02;;;;;;;7.27;5.47;;;20.70;29.50;;;;;;10458153;28;20696;-73
2023/09/05 22:17:07;;;;;;;6.50;4.83;;;20.60;29.50;;;;;;10462457;28;20228;-73
2023/09/05 22:22:10;;;;;;;6.10;5.50;;;20.50;29.80;;;;;;10462295;28;20232;-73
2023/09/05 22:27:13;;;;;;;5.90;5.30;;;20.40;29.60;;;;;;10455905;28;20221;-73
2023/09/05 22:32:18;;;;;;;5.63;5.13;;;20.30;29.60;;;;;;10471981;28;20679;-73
2023/09/05 22:37:22;;;;;;;5.90;5.40;;;20.30;30.00;;;;;;10459383;28;20229;-73
2023/09/05 22:42:26;;;;;;;5.87;5.37;;;20.20;29.70;;;;;;10459336;28;20223;-73
2023/09/05 22:47:31;;;;;;;6.20;5.60;;;20.20;29.70;;;;;;10452330;28;20336;-73
2023/09/05 22:52:34;;;;;;;5.13;4.73;;;20.10;29.70;;;;;;10452610;28;20281;-73
2023/09/05 22:57:37;;;;;;;7.20;4.63;;;19.90;29.40;;;;;;10457610;28;20306;-73
2023/09/05 23:02:43;;;;;;;4.67;4.27;;;19.80;29.60;;;;;;10453444;28;20604;-73
2023/09/05 23:07:46;;;;;;;5.00;4.60;;;19.60;30.10;;;;;;10453422;28;20229;-73
2023/09/05 23:12:50;;;;;;;5.10;4.70;;;19.50;30.10;;;;;;10463253;28;21500;-73
2023/09/05 23:18:34;;;;;;;5.93;5.33;;;19.40;30.00;;;;;;10441653;28;20276;-73
2023/09/05 23:23:46;;;;;;;6.70;6.20;;;19.20;30.90;;;;;;10415752;28;20221;-73
2023/09/05 23:28:49;;;;;;;6.50;5.93;;;19.10;30.60;;;;;;10419751;28;20882;-73
2023/09/05 23:33:53;;;;;;;6.10;5.60;;;19.00;30.50;;;;;;10428045;28;20224;-73
2023/09/05 23:38:59;;;;;;;6.47;5.97;;;18.90;30.70;;;;;;10421507;28;20232;-73
2023/09/05 23:44:03;;;;;;;6.17;5.63;;;18.80;31.30;;;;;;10412607;28;20221;-73
2023/09/05 23:49:06;;;;;;;5.57;5.07;;;18.80;31.10;;;;;;10420498;28;20324;-72
2023/09/05 23:54:11;;;;;;;6.13;5.53;;;18.70;31.00;;;;;;10415682;28;20225;-72
2023/09/05 23:59:15;;;;;;;5.53;5.03;;;18.70;31.40;;;;;;10419948;28;20228;-73
